Nearby METAR Reports

 

KELM - Elmira, New York, USA
Distance from station: W 13mi, 20km
Updated: Sun, 22-Oct-2017 9:53pm EDT
Clear
Clear
 Wind from calm
Wind: Calm
Temperature: 57°F , 14°C
Dew Point: 48°F , 9°C
Humidity: 72%
Barometer: 30.28 inHg , 1025.4 hPa
Clouds: Clear
Visibility: 10 miles , 16 km
2017/10/23 01:53 KELM 230153Z AUTO 00000KT 10SM CLR 14/09 A3028 RMK AO2 SLP255 T01390089
KITH - Ithaca/Tompkins, New York, USA
Distance from station: NNE 24mi, 39km
Updated: Sun, 22-Oct-2017 9:56pm EDT
Clear
Clear
 Wind from SSE
Wind: SSE 12 mph , 19 km/h
Temperature: 61°F , 16°C
Dew Point: 45°F , 7°C
Humidity: 55%
Barometer: 30.30 inHg , 1026.1 hPa
Clouds: Clear
Visibility: 10 miles , 16 km
2017/10/23 01:56 KITH 230156Z 16010KT 10SM CLR 16/07 A3030 RMK AO2 SLP258 T01610072
KBGM - Binghamton, New York, USA
Distance from station: E 35mi, 56km
Updated: Sun, 22-Oct-2017 9:53pm EDT
Clear
Clear
 Wind from S
Wind: S 10 mph , 17 km/h
Temperature: 61°F , 16°C
Dew Point: 41°F , 5°C
Humidity: 48%
Barometer: 30.33 inHg , 1027.1 hPa
Clouds: Clear
Visibility: 10 miles , 16 km
2017/10/23 01:53 KBGM 230153Z 18009KT 10SM CLR 16/05 A3033 RMK AO2 SLP267 T01560050
 
KPEO - Penn Yan, New York, USA
Distance from station: NNW 40mi, 64km
Updated: Sun, 22-Oct-2017 9:53pm EDT
Clear
Clear
 Wind from S
Wind: S 6 mph , 9 km/h
Temperature: 61°F , 16°C
Dew Point: 48°F , 9°C
Humidity: 63%
Barometer: 30.27 inHg , 1025.1 hPa
Clouds: Clear
Visibility: 10 miles , 16 km
2017/10/23 01:53 KPEO 230153Z AUTO 17005KT 10SM CLR 16/09 A3027 RMK AO2 SLP247 T01560089
KDSV - Dansville, New York, USA
Distance from station: WNW 61mi, 99km
Updated: Sun, 22-Oct-2017 9:54pm EDT
Clear
Clear
 Wind from S
Wind: S 7 mph , 11 km/h
Temperature: 61°F , 16°C
Dew Point: 50°F , 10°C
Humidity: 68%
Barometer: 30.23 inHg , 1023.7 hPa
Clouds: Clear
Visibility: 10 miles , 16 km
2017/10/23 01:54 KDSV 230154Z AUTO 17006KT 10SM CLR 16/10 A3023 RMK AO2 SLP247 T01610100
KIPT - Williamsport, Pennsylvania, USA
Distance from station: SSW 64mi, 102km
Updated: Sun, 22-Oct-2017 9:54pm EDT
Clear
Clear
 Wind from E
Wind: E 8 mph , 13 km/h
Temperature: 66°F , 19°C
Dew Point: 46°F , 8°C
Humidity: 49%
Barometer: 30.29 inHg , 1025.7 hPa
Clouds: Clear
Visibility: 10 miles , 16 km
2017/10/23 01:54 KIPT 230154Z 09007KT 10SM CLR 19/08 A3029 RMK AO2 SLP258 T01890078
 
KELZ - Wellsville, New York, USA
Distance from station: W 68mi, 110km
Updated: Sun, 22-Oct-2017 9:56pm EDT
Clear
Clear
 Wind from SSE
Wind: SSE 10 mph , 17 km/h, Gust: 20 mph , 31 km/h
Temperature: 63°F , 17°C
Dew Point: 50°F , 10°C
Humidity: 64%
Barometer: 30.28 inHg , 1025.4 hPa
Clouds: Clear
Visibility: 10 miles , 16 km
2017/10/23 01:56 KELZ 230156Z AUTO 16009G17KT 10SM CLR 17/10 A3028 RMK AO2 SLP251 T01670100
KSYR - Syracuse, New York, USA
Distance from station: NNE 72mi, 117km
Updated: Sun, 22-Oct-2017 9:54pm EDT
Mostly cloudy
Mostly cloudy
 Wind from calm
Wind: Calm
Temperature: 55°F , 13°C
Dew Point: 48°F , 9°C
Humidity: 77%
Barometer: 30.26 inHg , 1024.7 hPa
Clouds: Mostly cloudy
Visibility: 10 miles , 16 km
Cloud details: Few Clouds 20000 ft
Mostly cloudy 24000 ft
2017/10/23 01:54 KSYR 230154Z 00000KT 10SM FEW200 BKN240 13/09 A3026 RMK AO2 SLP243 T01330089
KAVP - Avoca/Wilkes B., Pennsylvania, USA
Distance from station: SE 74mi, 120km
Updated: Sun, 22-Oct-2017 9:54pm EDT
Clear
Clear
 Wind from calm
Wind: Calm
Temperature: 63°F , 17°C
Dew Point: 45°F , 7°C
Humidity: 52%
Barometer: 30.34 inHg , 1027.4 hPa
Clouds: Clear
Visibility: 10 miles , 16 km
2017/10/23 01:54 KAVP 230154Z 00000KT 10SM CLR 17/07 A3034 RMK AO2 SLP271 T01720067